Flight Track Log - Related Links

Times and Time Zones

All times are in EDT time to prevent confusion due to time zone crossing. See the AAL1144 flight status page for this flight to view local times or setup timezone preferences in your user account.

Time Position Orientation Groundspeed Altitude Reporting Facility
EDT Latitude Longitude Course Direction KTS MPH feet Rate Location/Type
Mon 08:05:22 PM 33.6590 -117.8790 207° Southwest 151 174 1,200  Level FlightAware ADS-B
Mon 08:05:47 PM 33.6410 -117.8890 205° Southwest 183 211 1,800 1,418 Climbing FlightAware ADS-B
Mon 08:06:17 PM 33.6110 -117.8940 188° South 232 267 2,500 1,467 Climbing FlightAware ADS-B
Mon 08:06:32 PM 33.5950 -117.8960 186° South 252 290 2,900 2,509 Climbing FlightAware ADS-B
Mon 08:07:12 PM 33.5490 -117.8850 169° South 273 314 4,800 2,914 Climbing FlightAware ADS-B
Mon 08:07:42 PM 33.5160 -117.8610 149° Southeast 282 325 6,300 3,067 Climbing FlightAware ADS-B
Mon 08:07:57 PM 33.5050 -117.8400 122° Southeast 291 335 7,100 3,120 Climbing FlightAware ADS-B
Mon 08:08:07 PM 33.5020 -117.8220 101° East 297 342 7,600 2,700 Climbing FlightAware ADS-B
Mon 08:08:37 PM 33.5110 -117.7770 76° East 307 353 8,900 2,829 Climbing FlightAware ADS-B
Mon 08:09:17 PM 33.5300 -117.7100 71° East 319 367 10,900 2,259 Climbing FlightAware ADS-B
Mon 08:10:02 PM 33.5500 -117.6280 74° East 362 417 12,100 2,047 Climbing FlightAware ADS-B
Mon 08:10:42 PM 33.5680 -117.5490 75° East 376 433 13,800 2,612 Climbing FlightAware ADS-B
Mon 08:11:27 PM 33.5850 -117.4550 78° East 389 448 15,800 2,612 Climbing FlightAware ADS-B
Mon 08:12:07 PM 33.5880 -117.3690 88° East 396 456 17,500 2,475 Climbing FlightAware ADS-B
Mon 08:12:47 PM 33.5910 -117.2780 88° East 406 467 19,100 2,329 Climbing FlightAware ADS-B
Mon 08:13:32 PM 33.5950 -117.1770 87° East 416 479 20,800 2,259 Climbing FlightAware ADS-B
Mon 08:14:12 PM 33.5980 -117.0870 88° East 421 484 22,300 1,906 Climbing FlightAware ADS-B
Mon 08:14:57 PM 33.6020 -116.9770 87° East 432 497 23,500 1,765 Climbing FlightAware ADS-B
Mon 08:15:37 PM 33.6060 -116.8820 87° East 437 503 24,800 1,906 Climbing FlightAware ADS-B
Mon 08:16:22 PM 33.6090 -116.7720 88° East 442 509 26,200 1,765 Climbing FlightAware ADS-B
Mon 08:17:02 PM 33.6120 -116.6780 88° East 445 512 27,300 1,650 Climbing FlightAware ADS-B
Mon 08:17:42 PM 33.6160 -116.5760 87° East 451 519 28,400 1,200 Climbing FlightAware ADS-B
Mon 08:18:22 PM 33.6180 -116.5110 88° East 454 522 28,900 353 Climbing FlightAware ADS-B
Mon 08:19:07 PM 33.6220 -116.4100 87° East 454 522 28,900  Level FlightAware ADS-B
Mon 08:19:47 PM 33.6260 -116.3250 87° East 454 522 28,900  Level FlightAware ADS-B
Mon 08:20:27 PM 33.6300 -116.2390 87° East 454 522 28,900  Level FlightAware ADS-B
Mon 08:21:07 PM 33.6330 -116.1530 88° East 454 522 28,900  Level FlightAware ADS-B
Mon 08:21:57 PM 33.6380 -116.0460 87° East 454 522 28,900 5,057 Level FlightAware ADS-B
Mon 08:22:17 PM 33.7120 -115.9110 57° Northeast 449 517 34,800 5,446 Climbing FlightAware ADS-B
Mon 08:23:02 PM 33.7440 -115.8160 68° East 449 517 34,800  Level FlightAware ADS-B
Mon 08:23:42 PM 33.7700 -115.7380 68° East 449 517 34,800  Level FlightAware ADS-B
Mon 08:24:22 PM 33.7970 -115.6590 68° East 449 517 34,800  Level FlightAware ADS-B
Mon 08:25:12 PM 33.8300 -115.5600 68° East 449 517 34,800  Level FlightAware ADS-B
Mon 08:25:52 PM 33.8560 -115.4810 68° East 449 517 34,800  Level FlightAware ADS-B
Mon 08:26:32 PM 33.8830 -115.4030 67° East 449 517 34,800  Level FlightAware ADS-B
Mon 08:27:12 PM 33.9090 -115.3240 68° East 449 517 34,800  Level FlightAware ADS-B
Mon 08:27:52 PM 33.9360 -115.2450 68° East 449 517 34,800  Level FlightAware ADS-B
Mon 08:28:42 PM 33.9690 -115.1460 68° East 449 517 34,800  Level FlightAware ADS-B
Mon 08:29:22 PM 33.9950 -115.0670 68° East 449 517 34,800  Level FlightAware ADS-B
Mon 08:30:02 PM 34.0220 -114.9880 68° East 449 517 34,800  Level FlightAware ADS-B
Mon 08:30:42 PM 34.0480 -114.9090 68° East 449 517 34,800  Level FlightAware ADS-B
Mon 08:31:22 PM 34.0740 -114.8300 68° East 449 517 34,800  Level FlightAware ADS-B
Mon 08:32:02 PM 34.1010 -114.7510 68° East 449 517 34,800 943 Level FlightAware ADS-B
Mon 08:33:42 PM 34.2270 -114.3320 70° East 445 512 37,000 880 Climbing FlightAware ADS-B
Mon 08:34:32 PM 34.2630 -114.2200 69° East 446 513 37,000  Level FlightAware ADS-B
Mon 08:35:12 PM 34.2940 -114.1230 69° East 446 513 37,000  Level FlightAware ADS-B
Mon 08:35:52 PM 34.3220 -114.0340 69° East 445 512 37,000  Level FlightAware ADS-B
Mon 08:36:27 PM 34.3480 -113.9510 69° East 444 511 37,000  Level FlightAware ADS-B
Mon 08:37:17 PM 34.3840 -113.8350 69° East 445 512 37,000  Level FlightAware ADS-B
Mon 08:38:02 PM 34.4140 -113.7360 70° East 446 513 37,000  Level FlightAware ADS-B
Mon 08:38:57 PM 34.4550 -113.6040 69° East 445 512 37,000  Level FlightAware ADS-B
Mon 08:39:52 PM 34.4970 -113.4700 69° East 445 512 37,000  Level FlightAware ADS-B
Mon 08:40:32 PM 34.5260 -113.3760 69° East 444 511 37,000  Level FlightAware ADS-B
Mon 08:41:17 PM 34.5570 -113.2750 70° East 444 511 37,000  Level FlightAware ADS-B
Mon 08:41:57 PM 34.5860 -113.1800 70° East 444 511 37,000  Level FlightAware ADS-B
Mon 08:42:42 PM 34.6190 -113.0750 69° East 445 512 37,000  Level FlightAware ADS-B
Mon 08:43:22 PM 34.6460 -112.9860 70° East 447 514 37,000  Level FlightAware ADS-B
Mon 08:44:02 PM 34.6760 -112.8850 70° East 447 514 37,000  Level FlightAware ADS-B
Mon 08:44:47 PM 34.7070 -112.7850 69° East 448 516 37,000  Level FlightAware ADS-B
Mon 08:45:27 PM 34.7410 -112.6900 66° East 446 513 37,000  Level FlightAware ADS-B
Mon 08:46:12 PM 34.7790 -112.5890 65° Northeast 445 512 37,000  Level FlightAware ADS-B
Mon 08:46:52 PM 34.8130 -112.4990 65° Northeast 444 511 37,000  Level FlightAware ADS-B
Mon 08:47:32 PM 34.8480 -112.4050 66° East 443 510 37,000  Level FlightAware ADS-B
Mon 08:48:17 PM 34.8850 -112.3080 65° Northeast 441 507 37,000  Level FlightAware ADS-B
Mon 08:48:57 PM 34.9210 -112.2120 65° Northeast 441 507 37,000  Level FlightAware ADS-B
Mon 08:49:37 PM 34.9520 -112.1290 65° Northeast 440 506 37,000  Level FlightAware ADS-B
Mon 08:50:17 PM 34.9860 -112.0380 65° Northeast 438 504 37,000  Level FlightAware ADS-B
Mon 08:51:02 PM 35.0320 -111.9380 61° Northeast 437 503 37,000  Level FlightAware ADS-B
Mon 08:51:37 PM 35.0700 -111.8640 58° Northeast 437 503 37,000  Level FlightAware ADS-B
Mon 08:52:27 PM 35.1240 -111.7590 58° Northeast 436 502 37,000  Level FlightAware ADS-B
Mon 08:53:17 PM 35.1730 -111.6620 58° Northeast 435 501 37,000  Level FlightAware ADS-B
Mon 08:54:02 PM 35.2230 -111.5640 58° Northeast 434 499 37,000  Level FlightAware ADS-B
Mon 08:54:57 PM 35.2780 -111.4550 58° Northeast 433 498 37,000  Level FlightAware ADS-B
Mon 08:55:37 PM 35.3140 -111.3840 58° Northeast 433 498 37,000  Level FlightAware ADS-B
Mon 08:56:27 PM 35.3590 -111.2960 58° Northeast 433 498 37,000  Level FlightAware ADS-B
Mon 08:57:07 PM 35.3960 -111.2250 57° Northeast 433 498 37,000  Level FlightAware ADS-B
Mon 08:57:47 PM 35.4320 -111.1540 58° Northeast 433 498 37,000  Level FlightAware ADS-B
Mon 08:58:27 PM 35.4680 -111.0830 58° Northeast 433 498 37,000  Level FlightAware ADS-B
Mon 08:59:07 PM 35.5040 -111.0120 58° Northeast 433 498 37,000  Level FlightAware ADS-B
Mon 08:59:57 PM 35.5490 -110.9230 58° Northeast 433 498 37,000  Level FlightAware ADS-B
Mon 09:00:37 PM 35.5850 -110.8520 58° Northeast 433 498 37,000  Level FlightAware ADS-B
Mon 09:01:17 PM 35.6210 -110.7810 58° Northeast 433 498 37,000  Level FlightAware ADS-B
Mon 09:01:57 PM 35.6570 -110.7100 58° Northeast 433 498 37,000  Level FlightAware ADS-B
Mon 09:02:37 PM 35.6930 -110.6390 58° Northeast 433 498 37,000  Level FlightAware ADS-B
Mon 09:03:17 PM 35.7290 -110.5680 58° Northeast 433 498 37,000  Level FlightAware ADS-B
Mon 09:04:07 PM 35.7740 -110.4790 58° Northeast 433 498 37,000  Level FlightAware ADS-B
Mon 09:04:48 PM 35.8925 -110.2164 58° Northeast 434 499 37,000  Level Albuquerque Center
Mon 09:05:49 PM 35.9622 -110.0744 59° Northeast 433 498 37,000  Level Albuquerque Center
Mon 09:06:50 PM 36.0200 -109.9519 60° Northeast 432 497 37,000  Level Albuquerque Center
Mon 09:08:06 PM 36.0869 -109.7839 64° Northeast 431 496 37,000  Level Denver Center
Mon 09:09:07 PM 36.1375 -109.6561 64° Northeast 430 495 37,000  Level Denver Center
Mon 09:10:09 PM 36.1978 -109.5078 63° Northeast 431 496 37,000  Level Denver Center
Mon 09:11:11 PM 36.2489 -109.3794 64° Northeast 432 497 37,000  Level Denver Center
Mon 09:12:13 PM 36.3089 -109.2278 64° Northeast 435 501 37,000  Level Denver Center
Mon 09:13:15 PM 36.3606 -109.0978 64° Northeast 436 502 37,000  Level Denver Center
Mon 09:14:16 PM 36.4125 -108.9678 64° Northeast 436 502 37,000  Level Denver Center
Mon 09:15:18 PM 36.4719 -108.8156 64° Northeast 436 502 37,000  Level Denver Center
Mon 09:16:20 PM 36.5228 -108.6839 64° Northeast 438 504 37,000  Level Denver Center
Mon 09:17:22 PM 36.5819 -108.5311 64° Northeast 437 503 37,000  Level Denver Center
Mon 09:18:24 PM 36.6322 -108.4014 64° Northeast 434 499 37,000  Level Denver Center
Mon 09:19:26 PM 36.6900 -108.2503 64° Northeast 432 497 37,000  Level Denver Center
Mon 09:20:28 PM 36.7397 -108.1206 64° Northeast 433 498 37,000  Level Denver Center
Mon 09:21:29 PM 36.7886 -107.9914 65° Northeast 432 497 37,000  Level Denver Center
Mon 09:22:31 PM 36.8444 -107.8381 65° Northeast 435 501 37,000  Level Denver Center
Mon 09:23:33 PM 36.8933 -107.7058 65° Northeast 437 503 37,000  Level Denver Center
Mon 09:24:35 PM 36.9489 -107.5492 66° East 441 507 37,000  Level Denver Center
Mon 09:25:49 PM 36.9967 -107.4172 66° East 436 502 37,000  Level Denver Center
Mon 09:26:52 PM 37.0625 -107.2378 65° Northeast 443 510 37,000  Level Denver Center
Mon 09:27:54 PM 37.1186 -107.0822 66° East 440 506 37,000  Level Denver Center
Mon 09:28:55 PM 37.1667 -106.9492 66° East 438 504 37,000  Level Denver Center
Mon 09:29:57 PM 37.2142 -106.8161 66° East 437 503 37,000  Level Denver Center
Mon 09:35:40 PM 37.5055 -105.9780 66° East 450 518 37,000  Level FlightAware ADS-B
Mon 09:36:12 PM 37.5259 -105.9000 72° East 449 517 37,000  Level FlightAware ADS-B
Mon 09:36:42 PM 37.5455 -105.8250 72° East 447 514 37,000  Level FlightAware ADS-B
Mon 09:37:12 PM 37.5645 -105.7500 72° East 447 514 37,000  Level FlightAware ADS-B
Mon 09:37:46 PM 37.5861 -105.6670 72° East 447 514 37,000  Level FlightAware ADS-B
Mon 09:38:16 PM 37.6051 -105.5920 72° East 446 513 37,000  Level FlightAware ADS-B
Mon 09:38:47 PM 37.6246 -105.5170 72° East 445 512 37,000  Level FlightAware ADS-B
Mon 09:39:17 PM 37.6437 -105.4420 72° East 447 514 37,000  Level FlightAware ADS-B
Mon 09:39:48 PM 37.6629 -105.3670 72° East 445 512 37,000  Level FlightAware ADS-B
Mon 09:40:19 PM 37.6822 -105.2900 72° East 447 514 37,000  Level FlightAware ADS-B
Mon 09:40:50 PM 37.7021 -105.2120 72° East 448 516 37,000  Level FlightAware ADS-B
Mon 09:41:21 PM 37.7209 -105.1360 73° East 450 518 37,000  Level FlightAware ADS-B
Mon 09:41:51 PM 37.7398 -105.0610 72° East 449 517 37,000  Level FlightAware ADS-B
Mon 09:42:27 PM 37.7626 -104.9700 72° East 448 516 37,000  Level FlightAware ADS-B
Mon 09:42:59 PM 37.7825 -104.8900 73° East 447 514 37,000  Level FlightAware ADS-B
Mon 09:43:31 PM 37.8020 -104.8110 73° East 448 516 37,000  Level FlightAware ADS-B
Mon 09:44:02 PM 37.8212 -104.7340 72° East 449 517 37,000  Level FlightAware ADS-B
Mon 09:44:33 PM 37.8403 -104.6560 73° East 448 516 37,000  Level FlightAware ADS-B
Mon 09:45:04 PM 37.8593 -104.5790 73° East 446 513 37,000  Level FlightAware ADS-B
Mon 09:45:37 PM 37.8790 -104.4990 73° East 447 514 37,000  Level FlightAware ADS-B
Mon 09:46:20 PM 37.9058 -104.3890 73° East 447 514 37,000 324 Level FlightAware ADS-B
Mon 09:46:51 PM 37.9242 -104.3140 73° East 447 514 37,400 677 Climbing FlightAware ADS-B
Mon 09:47:22 PM 37.9428 -104.2370 73° East 444 511 37,700 689 Climbing FlightAware ADS-B
Mon 09:47:52 PM 37.9610 -104.1620 73° East 446 513 38,100 750 Climbing FlightAware ADS-B
Mon 09:48:26 PM 37.9812 -104.0780 73° East 445 512 38,500 750 Climbing FlightAware ADS-B
Mon 09:48:56 PM 37.9995 -104.0020 73° East 445 512 38,900 492 Climbing FlightAware ADS-B
Mon 09:49:27 PM 38.0186 -103.9260 72° East 445 512 39,000 98 Climbing FlightAware ADS-B
Mon 09:49:57 PM 38.0382 -103.8510 72° East 444 511 39,000  Level FlightAware ADS-B
Mon 09:50:27 PM 38.0579 -103.7770 71° East 439 505 39,000  Level FlightAware ADS-B
Mon 09:50:58 PM 38.0771 -103.7040 72° East 437 503 39,000  Level FlightAware ADS-B
Mon 09:51:28 PM 38.0959 -103.6310 72° East 435 501 39,000  Level FlightAware ADS-B
Mon 09:51:58 PM 38.1146 -103.5570 72° East 438 504 39,000  Level FlightAware ADS-B
Mon 09:52:29 PM 38.1335 -103.4820 72° East 440 506 39,000  Level FlightAware ADS-B
Mon 09:52:59 PM 38.1521 -103.4080 72° East 439 505 39,000  Level FlightAware ADS-B
Mon 09:53:29 PM 38.1707 -103.3350 72° East 435 501 39,000  Level FlightAware ADS-B
Mon 09:53:59 PM 38.1894 -103.2610 72° East 435 501 39,000  Level FlightAware ADS-B
Mon 09:54:30 PM 38.2081 -103.1870 72° East 434 499 39,000  Level FlightAware ADS-B
Mon 09:55:00 PM 38.2268 -103.1130 72° East 435 501 39,000  Level FlightAware ADS-B
Mon 09:55:31 PM 38.2453 -103.0400 72° East 434 499 39,000  Level FlightAware ADS-B
Mon 09:56:01 PM 38.2635 -102.9660 73° East 434 499 39,000  Level FlightAware ADS-B
Mon 09:56:32 PM 38.2824 -102.8910 72° East 434 499 39,000  Level FlightAware ADS-B
Mon 09:57:02 PM 38.3005 -102.8170 73° East 436 502 39,000  Level FlightAware ADS-B
Mon 09:57:32 PM 38.3190 -102.7430 72° East 438 504 39,000  Level FlightAware ADS-B
Mon 09:58:03 PM 38.3374 -102.6690 72° East 442 509 39,000  Level FlightAware ADS-B
Mon 09:58:35 PM 38.3571 -102.5880 73° East 443 510 39,000  Level FlightAware ADS-B
Mon 09:59:05 PM 38.3757 -102.5120 73° East 444 511 39,000  Level FlightAware ADS-B
Mon 09:59:37 PM 38.3949 -102.4340 73° East 442 509 39,000  Level FlightAware ADS-B
Mon 10:00:09 PM 38.4144 -102.3540 73° East 437 503 39,000  Level FlightAware ADS-B
Mon 10:00:41 PM 38.4335 -102.2760 73° East 436 502 39,000  Level FlightAware ADS-B
Mon 10:01:12 PM 38.4519 -102.2000 73° East 434 499 39,000  Level FlightAware ADS-B
Mon 10:01:42 PM 38.4697 -102.1270 73° East 432 497 39,000  Level FlightAware ADS-B
Mon 10:02:13 PM 38.4874 -102.0530 73° East 429 494 39,000  Level FlightAware ADS-B
Mon 10:02:36 PM 38.5007 -101.9970 73° East 428 493 39,000  Level FlightAware ADS-B
Mon 10:03:08 PM 38.5213 -101.9210 71° East 429 494 39,000  Level FlightAware ADS-B
Mon 10:03:38 PM 38.5410 -101.8480 71° East 432 497 39,000  Level FlightAware ADS-B
Mon 10:04:09 PM 38.5606 -101.7750 71° East 432 497 39,000  Level FlightAware ADS-B
Mon 10:04:39 PM 38.5803 -101.7020 71° East 432 497 39,000  Level FlightAware ADS-B
Mon 10:05:11 PM 38.6008 -101.6250 71° East 435 501 39,000  Level FlightAware ADS-B
Mon 10:05:41 PM 38.6207 -101.5510 71° East 434 499 39,000  Level FlightAware ADS-B
Mon 10:06:12 PM 38.6405 -101.4760 71° East 430 495 39,000  Level FlightAware ADS-B
Mon 10:06:45 PM 38.6610 -101.3990 71° East 429 494 39,000  Level FlightAware ADS-B
Mon 10:07:32 PM 38.6847 -101.3078 71° East 428 493 39,000  Level Denver Center
Mon 10:08:34 PM 38.7272 -101.1469 71° East 426 490 39,000  Level Denver Center
Mon 10:09:36 PM 38.7633 -101.0058 72° East 434 499 39,000  Level Denver Center
Mon 10:10:37 PM 38.8058 -100.8425 71° East 433 498 39,000  Level Denver Center
Mon 10:11:39 PM 38.8425 -100.7047 71° East 428 493 39,000  Level Denver Center
Mon 10:12:41 PM 38.8725 -100.5875 72° East 431 496 39,000  Level Denver Center
Mon 10:13:43 PM 38.9194 -100.4006 72° East 430 495 39,000  Level Denver Center
Mon 10:14:45 PM 38.9547 -100.2589 72° East 431 496 39,000  Level Denver Center
Mon 10:15:47 PM 38.9975 -100.0911 72° East 438 504 39,000  Level Denver Center
Mon 10:16:49 PM 39.0328 -99.9514 72° East 436 502 39,000  Level Denver Center
Mon 10:18:03 PM 39.0753 -99.7872 72° East 433 498 39,000  Level Denver Center
Mon 10:19:05 PM 39.1156 -99.6186 73° East 437 503 39,000  Level Denver Center
Mon 10:20:07 PM 39.1564 -99.4522 72° East 438 504 39,000  Level Denver Center
Mon 10:21:09 PM 39.1928 -99.3006 73° East 436 502 39,000  Level Denver Center
Mon 10:22:10 PM 39.2306 -99.1419 73° East 440 506 39,000  Level Denver Center
Mon 10:23:12 PM 39.2650 -99.0000 73° East 437 503 39,000  Level Denver Center
Mon 10:24:14 PM 39.3006 -98.8522 73° East 436 502 39,000  Level Denver Center
Mon 10:25:16 PM 39.3356 -98.7017 73° East 438 504 39,000  Level Denver Center
Mon 10:26:17 PM 39.3786 -98.5222 73° East 437 503 39,000  Level Denver Center
Mon 10:27:19 PM 39.4133 -98.3722 73° East 437 503 39,000  Level Denver Center
Mon 10:28:21 PM 39.4486 -98.2208 73° East 439 505 39,000  Level Denver Center
Mon 10:29:13 PM 39.4772 -98.0969 73° East 438 504 39,000  Level Kansas City Center
Mon 10:30:14 PM 39.5083 -97.9389 76° East 450 518 39,000  Level Kansas City Center
Mon 10:31:16 PM 39.5289 -97.7864 80° East 443 510 39,000  Level Kansas City Center
Mon 10:32:17 PM 39.5536 -97.6253 79° East 452 520 39,000  Level Kansas City Center
Mon 10:38:22 PM 39.6730 -96.7440 79° East 459 528 39,000  Level FlightAware ADS-B
Mon 10:39:07 PM 39.6870 -96.6320 81° East 460 529 39,000  Level FlightAware ADS-B
Mon 10:39:42 PM 39.6990 -96.5480 79° East 461 531 39,000  Level FlightAware ADS-B
Mon 10:40:32 PM 39.7180 -96.3940 81° East 466 536 39,000  Level FlightAware ADS-B
Mon 10:41:12 PM 39.7360 -96.2500 81° East 467 537 39,000  Level FlightAware ADS-B
Mon 10:41:52 PM 39.7480 -96.1560 81° East 468 539 39,000  Level FlightAware ADS-B
Mon 10:42:37 PM 39.7660 -96.0120 81° East 469 540 39,000  Level FlightAware ADS-B
Mon 10:43:17 PM 39.7770 -95.9280 80° East 469 540 39,000  Level FlightAware ADS-B
Mon 10:44:02 PM 39.8090 -95.6710 81° East 461 531 39,000  Level FlightAware ADS-B
Mon 10:44:37 PM 39.8210 -95.5730 81° East 460 529 39,000  Level FlightAware ADS-B
Mon 10:45:22 PM 39.8350 -95.4510 81° East 458 527 39,000  Level FlightAware ADS-B
Mon 10:46:07 PM 39.8330 -95.4680 261° West 459 528 39,000  Level FlightAware ADS-B
Mon 10:46:47 PM 39.8510 -95.3220 81° East 458 527 39,000  Level FlightAware ADS-B
Mon 10:47:27 PM 39.8610 -95.2340 82° East 457 526 39,000  Level FlightAware ADS-B
Mon 10:48:12 PM 39.8900 -94.9860 81° East 455 524 39,000  Level FlightAware ADS-B
Mon 10:48:52 PM 39.9020 -94.8800 82° East 454 522 39,000  Level FlightAware ADS-B
Mon 10:49:37 PM 39.9160 -94.7590 81° East 453 521 39,000  Level FlightAware ADS-B
Mon 10:50:17 PM 39.9280 -94.6520 82° East 453 521 39,000  Level FlightAware ADS-B
Mon 10:50:57 PM 39.9410 -94.5440 81° East 458 527 39,000  Level FlightAware ADS-B
Mon 10:51:42 PM 39.9550 -94.4170 82° East 460 529 39,000  Level FlightAware ADS-B
Mon 10:52:22 PM 39.9670 -94.3090 82° East 462 532 39,000  Level FlightAware ADS-B
Mon 10:53:07 PM 39.9800 -94.1870 82° East 467 537 39,000  Level FlightAware ADS-B
Mon 10:53:47 PM 39.9920 -94.0760 82° East 469 540 39,000  Level FlightAware ADS-B
Mon 10:54:32 PM 40.0050 -93.9500 82° East 470 541 39,000  Level FlightAware ADS-B
Mon 10:55:12 PM 40.0170 -93.8350 82° East 469 540 39,000  Level FlightAware ADS-B
Mon 10:55:52 PM 40.0280 -93.7220 83° East 468 539 39,000  Level FlightAware ADS-B
Mon 10:56:37 PM 40.0400 -93.6000 83° East 466 536 39,000  Level FlightAware ADS-B
Mon 10:57:17 PM 40.0510 -93.4870 83° East 465 535 39,000  Level FlightAware ADS-B
Mon 10:58:02 PM 40.0640 -93.3610 82° East 467 537 39,000  Level FlightAware ADS-B
Mon 10:58:47 PM 40.0760 -93.2370 83° East 471 542 39,000  Level FlightAware ADS-B
Mon 10:59:27 PM 40.0860 -93.1220 83° East 472 543 39,000  Level FlightAware ADS-B
Mon 11:00:07 PM 40.0960 -93.0130 83° East 472 543 39,000  Level FlightAware ADS-B
Mon 11:00:47 PM 40.1070 -92.8970 83° East 473 544 39,000  Level FlightAware ADS-B
Mon 11:01:32 PM 40.1190 -92.7690 83° East 474 545 39,000  Level FlightAware ADS-B
Mon 11:02:12 PM 40.1300 -92.6540 83° East 474 545 39,000  Level FlightAware ADS-B
Mon 11:02:57 PM 40.1560 -92.5340 74° East 469 540 39,000  Level FlightAware ADS-B
Mon 11:03:37 PM 40.1900 -92.4380 65° Northeast 468 539 39,000  Level FlightAware ADS-B
Mon 11:04:22 PM 40.2350 -92.3150 64° Northeast 467 537 39,000  Level FlightAware ADS-B
Mon 11:05:02 PM 40.2710 -92.2150 65° Northeast 467 537 39,000  Level FlightAware ADS-B
Mon 11:05:42 PM 40.3070 -92.1160 64° Northeast 467 537 39,000  Level FlightAware ADS-B
Mon 11:06:27 PM 40.3500 -91.9940 65° Northeast 466 536 39,000 -424 Level FlightAware ADS-B
Mon 11:07:07 PM 40.3850 -91.8970 65° Northeast 464 534 38,400 -988 Descending FlightAware ADS-B
Mon 11:07:52 PM 40.4250 -91.7830 65° Northeast 467 537 37,600 -988 Descending FlightAware ADS-B
Mon 11:08:32 PM 40.4620 -91.6760 66° East 470 541 37,000 -1,275 Descending FlightAware ADS-B
Mon 11:09:12 PM 40.4980 -91.5700 66° East 470 541 35,900 -2,259 Descending FlightAware ADS-B
Mon 11:09:57 PM 40.5380 -91.4510 66° East 477 549 33,800 -2,118 Descending FlightAware ADS-B
Mon 11:10:37 PM 40.5720 -91.3480 66° East 479 551 32,900 -600 Descending FlightAware ADS-B
Mon 11:11:17 PM 40.6110 -91.2370 65° Northeast 487 560 33,000 71 Climbing FlightAware ADS-B
Mon 11:12:02 PM 40.6510 -91.1180 66° East 490 564 33,000  Level FlightAware ADS-B
Mon 11:12:42 PM 40.6880 -91.0090 66° East 492 566 33,000  Level FlightAware ADS-B
Mon 11:13:27 PM 40.7290 -90.8890 66° East 495 570 33,000  Level FlightAware ADS-B
Mon 11:14:07 PM 40.7680 -90.7750 66° East 495 570 33,000  Level FlightAware ADS-B
Mon 11:14:52 PM 40.8100 -90.6510 66° East 496 571 33,000  Level FlightAware ADS-B
Mon 11:15:32 PM 40.8470 -90.5390 66° East 497 572 33,000  Level FlightAware ADS-B
Mon 11:16:17 PM 40.8890 -90.4120 66° East 497 572 33,000 -71 Level FlightAware ADS-B
Mon 11:16:57 PM 40.9250 -90.3050 66° East 498 573 32,900 -600 Descending FlightAware ADS-B
Mon 11:17:37 PM 40.9630 -90.1890 67° East 500 575 32,200 -988 Descending FlightAware ADS-B
Mon 11:18:22 PM 41.0040 -90.0660 66° East 501 577 31,500 -1,200 Descending FlightAware ADS-B
Mon 11:19:02 PM 41.0410 -89.9530 67° East 492 566 30,500 -1,875 Descending FlightAware ADS-B
Mon 11:19:42 PM 41.0750 -89.8470 67° East 477 549 29,000 -2,259 Descending FlightAware ADS-B
Mon 11:20:27 PM 41.1140 -89.7280 66° East 462 532 27,300 -2,329 Descending FlightAware ADS-B
Mon 11:21:07 PM 41.1480 -89.6240 67° East 450 518 25,700 -2,250 Descending FlightAware ADS-B
Mon 11:21:47 PM 41.1840 -89.5280 63° Northeast 441 507 24,300 -2,188 Descending FlightAware ADS-B
Mon 11:22:32 PM 41.2270 -89.4210 62° Northeast 433 498 22,600 -2,259 Descending FlightAware ADS-B
Mon 11:23:12 PM 41.2650 -89.3270 62° Northeast 423 487 21,100 -2,188 Descending FlightAware ADS-B
Mon 11:23:57 PM 41.3060 -89.2270 61° Northeast 413 475 19,500 -2,118 Descending FlightAware ADS-B
Mon 11:24:37 PM 41.3410 -89.1390 62° Northeast 405 466 18,100 -2,118 Descending FlightAware ADS-B
Mon 11:25:22 PM 41.3810 -89.0380 62° Northeast 397 457 16,500 -2,118 Descending FlightAware ADS-B
Mon 11:26:02 PM 41.4150 -88.9530 62° Northeast 392 451 15,100 -2,047 Descending FlightAware ADS-B
Mon 11:26:47 PM 41.4530 -88.8580 62° Northeast 387 445 13,600 -2,047 Descending FlightAware ADS-B
Mon 11:27:27 PM 41.4860 -88.7740 62° Northeast 378 435 12,200 -1,875 Descending FlightAware ADS-B
Mon 11:28:07 PM 41.5180 -88.6940 62° Northeast 371 427 11,100 -776 Descending FlightAware ADS-B
Mon 11:28:52 PM 41.5520 -88.6060 63° Northeast 352 405 11,100  Level FlightAware ADS-B
Mon 11:29:32 PM 41.5820 -88.5320 62° Northeast 325 374 11,100 -675 Level FlightAware ADS-B
Mon 11:30:12 PM 41.6130 -88.4610 60° Northeast 321 369 10,200 -1,309 Descending FlightAware ADS-B
Mon 11:30:27 PM 41.6260 -88.4380 53° Northeast 320 368 9,900 -1,333 Descending FlightAware ADS-B
Mon 11:30:57 PM 41.6530 -88.3920 52° Northeast 316 364 9,200 -1,400 Descending FlightAware ADS-B
Mon 11:31:27 PM 41.6800 -88.3440 53° Northeast 315 362 8,500 -1,309 Descending FlightAware ADS-B
Mon 11:31:52 PM 41.7010 -88.3080 52° Northeast 309 356 8,000 -1,418 Descending FlightAware ADS-B
Mon 11:32:22 PM 41.7290 -88.2610 51° Northeast 305 351 7,200 -982 Descending FlightAware ADS-B
Mon 11:32:47 PM 41.7500 -88.2250 52° Northeast 303 349 7,100 -109 Descending FlightAware ADS-B
Mon 11:33:17 PM 41.7760 -88.1810 52° Northeast 302 348 7,100  Level FlightAware ADS-B
Mon 11:33:47 PM 41.8000 -88.1380 53° Northeast 302 348 7,100  Level FlightAware ADS-B
Mon 11:34:12 PM 41.8260 -88.1000 47° Northeast 300 345 7,100  Level FlightAware ADS-B
Mon 11:34:27 PM 41.8430 -88.0900 24° Northeast 292 336 7,100  Level FlightAware ADS-B
Mon 11:34:52 PM 41.8740 -88.0870 North 262 302 7,100  Level FlightAware ADS-B
Mon 11:35:22 PM 41.9110 -88.0840 North 247 284 7,100  Level FlightAware ADS-B
Mon 11:35:42 PM 41.9290 -88.0830 North 244 281 7,100 -600 Level FlightAware ADS-B
Mon 11:36:02 PM 41.9520 -88.0890 349° North 234 269 6,700 -1,680 Descending FlightAware ADS-B
Mon 11:36:32 PM 41.9860 -88.1020 344° North 240 276 5,700 -1,964 Descending FlightAware ADS-B
Mon 11:36:57 PM 42.0120 -88.1120 344° North 244 281 4,900 -1,745 Descending FlightAware ADS-B
Mon 11:37:27 PM 42.0460 -88.1250 344° North 250 288 4,100 -640 Descending FlightAware ADS-B
Mon 11:38:12 PM 42.0920 -88.1080 15° North 232 267 4,100 -171 Level FlightAware ADS-B
Mon 11:38:37 PM 42.1080 -88.0830 49° Northeast 221 254 3,900 -800 Descending FlightAware ADS-B
Mon 11:38:42 PM 42.1090 -88.0760 79° East 215 247 3,700 -1,600 Descending FlightAware ADS-B
Mon 11:39:07 PM 42.0990 -88.0530 120° Southeast 169 194 3,100 -1,200 Descending FlightAware ADS-B
Mon 11:39:32 PM 42.0830 -88.0370 143° Southeast 161 185 2,700 -545 Descending FlightAware ADS-B
Mon 11:40:02 PM 42.0670 -88.0190 140° Southeast 162 186 2,600 -400 Descending FlightAware ADS-B
Mon 11:40:17 PM 42.0570 -88.0080 141° Southeast 159 183 2,400 -750 Descending FlightAware ADS-B
Mon 11:40:42 PM 42.0440 -87.9940 141° Southeast 140 161 2,100 -655 Descending FlightAware ADS-B
Mon 11:41:12 PM 42.0300 -87.9770 138° Southeast 128 147 1,800 -655 Descending FlightAware ADS-B
Mon 11:41:37 PM 42.0190 -87.9650 141° Southeast 129 148 1,500 -655 Descending FlightAware ADS-B
Mon 11:42:07 PM 42.0050 -87.9500 141° Southeast 132 152 1,200 -700 Descending FlightAware ADS-B
Mon 11:42:37 PM 41.9900 -87.9330 140° Southeast 138 159 800 -800 Descending FlightAware ADS-B

Login

Don't have an account? Register now (free) for customized features, flight alerts, and more!